Time;durP1;ratioP1;P1;durP2;ratioP2;P2;SDS_P1;SDS_P2;PMS_P1;PMS_P2;Temp;Humidity;BMP_temperature;BMP_pressure;BME280_temperature;BME280_humidity;BME280_pressure;Samples;Min_cycle;Max_cycle;Signal;HPM_P1;HPM_P2
2022/11/24 00:00:19;;;;;;;10.60;3.37;;;;;;;;;;5004133;28;20199;-81
2022/11/24 00:02:44;;;;;;;13.07;3.60;;;;;;;;;;5001871;28;20648;-82
2022/11/24 00:05:10;;;;;;;12.53;4.13;;;;;;;;;;5005537;28;20211;-81
2022/11/24 00:07:35;;;;;;;18.53;3.07;;;;;;;;;;4988628;28;20184;-82
2022/11/24 00:10:00;;;;;;;11.33;2.50;;;;;;;;;;5006783;28;20224;-82
2022/11/24 00:12:25;;;;;;;9.70;2.60;;;;;;;;;;5006128;28;20195;-82
2022/11/24 00:14:51;;;;;;;15.57;4.50;;;;;;;;;;5011775;28;20179;-82
2022/11/24 00:17:16;;;;;;;11.87;2.20;;;;;;;;;;5000691;28;20198;-83
2022/11/24 00:19:41;;;;;;;12.50;2.50;;;;;;;;;;4996620;28;20199;-82
2022/11/24 00:22:06;;;;;;;9.00;2.87;;;;;;;;;;5004191;28;20288;-82
2022/11/24 00:24:32;;;;;;;9.23;2.80;;;;;;;;;;5009845;28;20198;-83
2022/11/24 00:26:57;;;;;;;11.40;2.20;;;;;;;;;;5010226;28;20203;-82
2022/11/24 00:29:22;;;;;;;10.93;3.30;;;;;;;;;;5009994;28;20223;-83
2022/11/24 00:31:47;;;;;;;18.67;3.80;;;;;;;;;;5010073;28;20174;-82
2022/11/24 00:34:13;;;;;;;12.57;3.07;;;;;;;;;;5009726;28;20176;-81
2022/11/24 00:36:39;;;;;;;12.33;2.50;;;;;;;;;;4993282;28;20168;-83
2022/11/24 00:39:05;;;;;;;15.07;3.20;;;;;;;;;;5009101;28;20223;-82
2022/11/24 00:41:31;;;;;;;15.30;3.70;;;;;;;;;;4992276;28;20172;-82
2022/11/24 00:43:56;;;;;;;13.53;3.10;;;;;;;;;;5007869;28;20195;-82
2022/11/24 00:46:22;;;;;;;13.27;4.10;;;;;;;;;;5010970;28;20179;-83
2022/11/24 00:48:47;;;;;;;11.90;4.20;;;;;;;;;;4990880;28;20283;-83
2022/11/24 00:51:13;;;;;;;15.73;4.17;;;;;;;;;;4991510;28;20191;-83
2022/11/24 00:53:39;;;;;;;10.27;3.40;;;;;;;;;;5010984;28;20175;-82
2022/11/24 00:56:04;;;;;;;14.70;4.20;;;;;;;;;;5010565;28;20180;-82
2022/11/24 00:58:30;;;;;;;14.97;3.40;;;;;;;;;;5008643;28;20191;-82
2022/11/24 01:01:00;;;;;;;19.77;3.67;;;;;;;;;;5009121;28;20167;-82
2022/11/24 01:03:25;;;;;;;17.87;4.20;;;;;;;;;;4989794;28;20247;-82
2022/11/24 01:05:50;;;;;;;14.30;3.13;;;;;;;;;;5009873;28;20191;-81
2022/11/24 01:08:16;;;;;;;10.80;2.80;;;;;;;;;;5009909;28;20172;-82
2022/11/24 01:10:41;;;;;;;18.73;3.17;;;;;;;;;;5000264;28;20207;-82
2022/11/24 01:13:06;;;;;;;19.10;3.40;;;;;;;;;;5008410;28;20247;-81
2022/11/24 01:15:33;;;;;;;15.77;3.20;;;;;;;;;;5008392;28;20186;-81
2022/11/24 01:17:58;;;;;;;15.10;2.83;;;;;;;;;;5007468;28;20551;-81
2022/11/24 01:20:24;;;;;;;13.03;3.07;;;;;;;;;;5009037;28;20202;-81
2022/11/24 01:22:50;;;;;;;10.10;3.13;;;;;;;;;;5008435;28;20200;-81
2022/11/24 01:25:15;;;;;;;17.67;4.37;;;;;;;;;;5009077;28;20188;-81
2022/11/24 01:27:40;;;;;;;18.10;4.27;;;;;;;;;;4989024;28;20190;-81
2022/11/24 01:30:06;;;;;;;12.43;3.30;;;;;;;;;;4998983;28;20230;-81
2022/11/24 01:32:32;;;;;;;13.33;2.40;;;;;;;;;;4986671;28;20186;-82
2022/11/24 01:34:57;;;;;;;13.57;3.13;;;;;;;;;;5001296;28;20176;-81
2022/11/24 01:37:23;;;;;;;14.77;3.53;;;;;;;;;;5000547;28;20222;-82
2022/11/24 01:39:48;;;;;;;14.53;2.07;;;;;;;;;;5001281;28;20257;-81
2022/11/24 01:42:13;;;;;;;10.07;2.33;;;;;;;;;;5000518;28;20183;-81
2022/11/24 01:44:39;;;;;;;14.07;2.30;;;;;;;;;;5004679;28;20255;-81
2022/11/24 01:47:12;;;;;;;8.50;2.30;;;;;;;;;;5008408;28;20190;-81
2022/11/24 01:49:45;;;;;;;13.63;3.00;;;;;;;;;;5003631;28;20223;-81
2022/11/24 01:52:11;;;;;;;11.17;2.33;;;;;;;;;;5002610;28;20670;-81
2022/11/24 01:54:40;;;;;;;10.40;2.27;;;;;;;;;;5005232;28;20179;-81
2022/11/24 01:57:10;;;;;;;14.57;3.17;;;;;;;;;;5006011;28;20172;-81
2022/11/24 01:59:36;;;;;;;11.00;2.53;;;;;;;;;;4989266;28;20207;-81
2022/11/24 02:02:01;;;;;;;7.53;2.17;;;;;;;;;;5000844;28;20176;-81
2022/11/24 02:04:28;;;;;;;7.73;2.10;;;;;;;;;;4988398;28;20203;-82
2022/11/24 02:06:56;;;;;;;10.80;3.33;;;;;;;;;;4983613;28;20171;-81
2022/11/24 02:09:24;;;;;;;12.10;2.40;;;;;;;;;;4988636;28;20218;-80
2022/11/24 02:11:50;;;;;;;11.27;2.27;;;;;;;;;;4992165;28;20656;-81
2022/11/24 02:14:17;;;;;;;9.50;2.40;;;;;;;;;;5003637;28;20253;-81
2022/11/24 02:16:45;;;;;;;12.13;2.40;;;;;;;;;;5009129;28;20210;-82
2022/11/24 02:19:15;;;;;;;11.97;2.97;;;;;;;;;;5000535;28;20227;-81
2022/11/24 02:21:40;;;;;;;9.13;2.40;;;;;;;;;;5003090;28;20194;-80
2022/11/24 02:24:13;;;;;;;9.60;3.33;;;;;;;;;;5005635;28;20203;-81
2022/11/24 02:26:40;;;;;;;8.87;2.17;;;;;;;;;;5003612;28;20188;-81
2022/11/24 02:29:06;;;;;;;13.63;2.40;;;;;;;;;;5004812;28;20298;-81
2022/11/24 02:31:31;;;;;;;9.77;2.40;;;;;;;;;;4984120;28;20670;-81
2022/11/24 02:33:57;;;;;;;9.47;2.10;;;;;;;;;;5003333;28;20215;-80
2022/11/24 02:36:22;;;;;;;10.17;2.40;;;;;;;;;;5003946;28;20221;-81
2022/11/24 02:38:47;;;;;;;10.33;2.33;;;;;;;;;;5000651;28;20226;-80
2022/11/24 02:41:13;;;;;;;10.03;1.70;;;;;;;;;;4982689;28;20184;-80
2022/11/24 02:43:42;;;;;;;14.27;2.23;;;;;;;;;;5003257;28;20176;-80
2022/11/24 02:46:09;;;;;;;12.63;2.57;;;;;;;;;;5003564;28;20179;-81
2022/11/24 02:48:34;;;;;;;10.93;2.50;;;;;;;;;;4984179;28;20234;-81
2022/11/24 02:51:00;;;;;;;12.17;2.17;;;;;;;;;;5003039;28;20179;-80
2022/11/24 02:53:25;;;;;;;14.77;2.53;;;;;;;;;;4994912;28;20573;-80
2022/11/24 02:55:50;;;;;;;9.37;3.03;;;;;;;;;;4992761;28;20219;-80
2022/11/24 02:58:15;;;;;;;10.67;2.17;;;;;;;;;;4995282;28;20183;-80
2022/11/24 03:00:41;;;;;;;7.57;1.70;;;;;;;;;;5003689;28;20179;-81
2022/11/24 03:03:06;;;;;;;6.20;1.87;;;;;;;;;;5003230;28;20237;-80
2022/11/24 03:05:31;;;;;;;8.97;2.00;;;;;;;;;;4995886;28;20195;-80
2022/11/24 03:07:56;;;;;;;5.60;1.70;;;;;;;;;;4992490;28;20245;-80
2022/11/24 03:10:23;;;;;;;11.77;2.23;;;;;;;;;;4995223;28;20266;-80
2022/11/24 03:12:48;;;;;;;10.07;3.53;;;;;;;;;;4995700;28;20172;-80
2022/11/24 03:15:13;;;;;;;7.77;2.30;;;;;;;;;;4978197;28;20172;-80
2022/11/24 03:17:39;;;;;;;10.90;1.70;;;;;;;;;;5001275;28;20179;-80
2022/11/24 03:20:04;;;;;;;8.70;1.90;;;;;;;;;;4997598;28;20191;-80
2022/11/24 03:22:29;;;;;;;7.47;1.80;;;;;;;;;;4982261;28;20175;-80
2022/11/24 03:24:54;;;;;;;8.93;2.30;;;;;;;;;;5000062;28;20191;-80
2022/11/24 03:27:20;;;;;;;7.83;2.53;;;;;;;;;;5004353;28;20211;-80
2022/11/24 03:29:45;;;;;;;15.10;2.20;;;;;;;;;;5003205;28;20685;-80
2022/11/24 03:32:10;;;;;;;8.50;2.17;;;;;;;;;;4999872;28;20171;-80
2022/11/24 03:34:35;;;;;;;8.37;2.53;;;;;;;;;;4988691;28;20175;-79
2022/11/24 03:37:01;;;;;;;11.40;2.23;;;;;;;;;;5005987;28;20180;-79
2022/11/24 03:39:26;;;;;;;5.07;2.00;;;;;;;;;;4995513;28;20552;-80
2022/11/24 03:41:51;;;;;;;13.10;3.00;;;;;;;;;;4996235;28;20359;-79
2022/11/24 03:44:17;;;;;;;10.10;2.90;;;;;;;;;;4994639;28;20175;-79
2022/11/24 03:46:42;;;;;;;9.30;2.10;;;;;;;;;;4994318;28;20214;-79
2022/11/24 03:49:07;;;;;;;12.63;2.67;;;;;;;;;;4994151;28;20704;-79
2022/11/24 03:51:33;;;;;;;15.80;3.37;;;;;;;;;;4998016;28;20187;-79
2022/11/24 03:53:58;;;;;;;13.60;2.60;;;;;;;;;;4988034;28;20669;-80
2022/11/24 03:56:23;;;;;;;18.93;4.00;;;;;;;;;;4991974;28;20266;-79
2022/11/24 03:58:48;;;;;;;15.23;2.67;;;;;;;;;;4983006;28;20231;-79
2022/11/24 04:01:14;;;;;;;8.07;3.13;;;;;;;;;;4975510;28;20222;-79
2022/11/24 04:03:39;;;;;;;9.37;2.30;;;;;;;;;;4994748;28;20226;-79
2022/11/24 04:06:04;;;;;;;14.20;2.17;;;;;;;;;;4981248;28;20744;-79
2022/11/24 04:08:29;;;;;;;10.77;3.77;;;;;;;;;;4977701;28;20231;-79
2022/11/24 04:10:55;;;;;;;11.47;2.93;;;;;;;;;;5000133;28;20175;-79
2022/11/24 04:13:23;;;;;;;11.80;3.13;;;;;;;;;;5000850;28;20246;-79
2022/11/24 04:15:48;;;;;;;10.10;3.77;;;;;;;;;;4982703;28;20688;-78
2022/11/24 04:18:13;;;;;;;12.30;3.27;;;;;;;;;;4996957;28;20175;-79
2022/11/24 04:20:39;;;;;;;7.67;2.50;;;;;;;;;;5003616;28;20226;-79
2022/11/24 04:23:05;;;;;;;13.83;4.27;;;;;;;;;;5001863;28;20295;-80
2022/11/24 04:25:30;;;;;;;12.10;3.63;;;;;;;;;;5002873;28;20179;-79
2022/11/24 04:27:55;;;;;;;8.83;3.27;;;;;;;;;;4982003;28;20568;-79
2022/11/24 04:30:21;;;;;;;12.60;2.97;;;;;;;;;;4999170;28;20427;-79
2022/11/24 04:32:47;;;;;;;7.63;2.77;;;;;;;;;;4989752;28;20188;-79
2022/11/24 04:35:12;;;;;;;7.73;2.50;;;;;;;;;;4995715;28;20235;-78
2022/11/24 04:37:38;;;;;;;5.63;3.07;;;;;;;;;;5002688;28;20179;-79
2022/11/24 04:40:04;;;;;;;12.07;3.00;;;;;;;;;;5011987;28;20199;-79
2022/11/24 04:42:29;;;;;;;7.47;3.03;;;;;;;;;;4991568;28;20179;-80
2022/11/24 04:44:55;;;;;;;5.93;2.33;;;;;;;;;;5003207;28;20598;-81
2022/11/24 04:47:21;;;;;;;7.27;2.10;;;;;;;;;;5009604;28;20179;-80
2022/11/24 04:49:47;;;;;;;6.80;1.67;;;;;;;;;;5006781;28;20214;-80
2022/11/24 04:52:13;;;;;;;7.77;2.00;;;;;;;;;;4988514;28;22123;-80
2022/11/24 04:54:38;;;;;;;6.50;1.60;;;;;;;;;;4988036;28;20390;-80
2022/11/24 04:57:03;;;;;;;5.00;1.30;;;;;;;;;;5006780;28;20172;-79
2022/11/24 04:59:28;;;;;;;3.93;1.00;;;;;;;;;;5000223;28;20667;-80
2022/11/24 05:01:53;;;;;;;3.57;0.80;;;;;;;;;;4992123;28;20186;-79
2022/11/24 05:04:20;;;;;;;7.40;1.37;;;;;;;;;;5008505;28;20187;-79
2022/11/24 05:06:45;;;;;;;5.10;0.90;;;;;;;;;;5006040;28;20248;-80
2022/11/24 05:09:13;;;;;;;1.20;0.53;;;;;;;;;;4992266;28;20204;-80
2022/11/24 05:11:38;;;;;;;0.87;0.53;;;;;;;;;;5008482;28;20766;-81
2022/11/24 05:14:03;;;;;;;2.83;0.60;;;;;;;;;;4996977;28;20179;-79
2022/11/24 05:16:28;;;;;;;3.63;0.97;;;;;;;;;;4991078;28;20184;-79
2022/11/24 05:18:53;;;;;;;4.70;1.17;;;;;;;;;;5003160;28;20573;-79
2022/11/24 05:21:19;;;;;;;3.97;0.80;;;;;;;;;;4991138;28;20203;-80
2022/11/24 05:23:44;;;;;;;1.83;0.90;;;;;;;;;;5010654;28;20184;-80
2022/11/24 05:26:09;;;;;;;3.57;0.80;;;;;;;;;;5011281;28;20184;-80
2022/11/24 05:28:34;;;;;;;2.63;1.10;;;;;;;;;;5006681;28;20218;-80
2022/11/24 05:31:03;;;;;;;10.13;1.40;;;;;;;;;;5011825;28;20203;-80
2022/11/24 05:33:28;;;;;;;4.57;1.33;;;;;;;;;;5008142;28;20230;-80
2022/11/24 05:35:54;;;;;;;3.17;1.07;;;;;;;;;;4996806;28;20179;-79
2022/11/24 05:38:21;;;;;;;1.73;0.97;;;;;;;;;;5009582;28;20175;-79
2022/11/24 05:40:46;;;;;;;3.93;1.30;;;;;;;;;;5013562;28;20184;-80
2022/11/24 05:43:13;;;;;;;5.20;1.27;;;;;;;;;;5011035;28;20180;-80
2022/11/24 05:45:38;;;;;;;7.50;1.63;;;;;;;;;;5006898;28;20186;-79
2022/11/24 05:48:07;;;;;;;3.03;1.17;;;;;;;;;;5007460;28;20270;-79
2022/11/24 05:50:33;;;;;;;3.73;1.43;;;;;;;;;;5010688;28;20210;-80
2022/11/24 05:53:06;;;;;;;2.30;1.40;;;;;;;;;;4991628;28;20210;-80
2022/11/24 05:55:31;;;;;;;6.20;2.33;;;;;;;;;;5004681;28;20206;-80
2022/11/24 05:57:57;;;;;;;7.33;1.50;;;;;;;;;;5007135;28;20180;-80
2022/11/24 06:00:22;;;;;;;3.40;1.50;;;;;;;;;;4998556;28;20345;-80
2022/11/24 06:02:48;;;;;;;6.07;1.77;;;;;;;;;;5005867;28;20175;-80
2022/11/24 06:05:13;;;;;;;4.70;1.50;;;;;;;;;;5006911;28;20171;-79
2022/11/24 06:07:38;;;;;;;2.93;1.57;;;;;;;;;;5010935;28;20175;-80
2022/11/24 06:10:04;;;;;;;2.97;1.40;;;;;;;;;;5005486;28;20196;-80
2022/11/24 06:12:29;;;;;;;3.83;1.60;;;;;;;;;;5005605;28;20250;-79
2022/11/24 06:14:54;;;;;;;6.00;2.00;;;;;;;;;;5002346;28;20202;-79
2022/11/24 06:17:19;;;;;;;4.33;1.87;;;;;;;;;;5005592;28;20211;-80
2022/11/24 06:19:48;;;;;;;4.10;1.60;;;;;;;;;;5006664;28;20199;-80
2022/11/24 06:22:14;;;;;;;5.37;2.10;;;;;;;;;;5002876;28;20180;-80
2022/11/24 06:24:39;;;;;;;5.23;2.43;;;;;;;;;;5007912;28;20243;-80
2022/11/24 06:27:04;;;;;;;5.40;2.50;;;;;;;;;;5003914;28;20605;-80
2022/11/24 06:29:29;;;;;;;3.07;2.30;;;;;;;;;;5006306;28;20250;-80
2022/11/24 06:31:54;;;;;;;5.73;3.23;;;;;;;;;;4987611;28;20560;-80
2022/11/24 06:34:20;;;;;;;5.87;3.53;;;;;;;;;;5007018;28;20202;-79
2022/11/24 06:36:45;;;;;;;7.03;3.23;;;;;;;;;;5006190;28;20189;-79
2022/11/24 06:39:11;;;;;;;6.27;3.33;;;;;;;;;;5003894;28;20195;-80
2022/11/24 06:41:36;;;;;;;6.83;3.83;;;;;;;;;;5003708;28;20187;-82
2022/11/24 06:44:02;;;;;;;6.47;4.17;;;;;;;;;;5005520;28;20183;-80
2022/11/24 06:46:27;;;;;;;7.90;3.97;;;;;;;;;;5006592;28;20194;-79
2022/11/24 06:48:53;;;;;;;6.33;4.20;;;;;;;;;;5006783;28;20591;-79
2022/11/24 06:51:18;;;;;;;7.43;4.63;;;;;;;;;;4989154;28;20179;-80
2022/11/24 06:53:44;;;;;;;9.77;4.77;;;;;;;;;;5010874;28;20207;-79
2022/11/24 06:56:10;;;;;;;6.13;4.90;;;;;;;;;;5001660;28;20171;-79
2022/11/24 06:58:39;;;;;;;7.47;4.60;;;;;;;;;;5008895;28;20199;-79
2022/11/24 07:01:04;;;;;;;8.73;5.27;;;;;;;;;;4985354;28;20187;-80
2022/11/24 07:03:30;;;;;;;9.43;6.13;;;;;;;;;;5007647;28;20179;-80
2022/11/24 07:05:56;;;;;;;7.70;5.53;;;;;;;;;;4988492;28;20180;-79
2022/11/24 07:08:21;;;;;;;7.60;5.37;;;;;;;;;;5005427;28;20178;-79
2022/11/24 07:10:46;;;;;;;9.77;6.07;;;;;;;;;;5005646;28;20203;-79
2022/11/24 07:13:12;;;;;;;10.33;6.07;;;;;;;;;;5004606;28;20229;-79
2022/11/24 07:15:37;;;;;;;10.17;5.60;;;;;;;;;;5006727;28;20179;-80
2022/11/24 07:18:02;;;;;;;9.00;4.93;;;;;;;;;;4989271;28;20653;-80
2022/11/24 07:20:27;;;;;;;9.57;5.73;;;;;;;;;;5003786;28;20192;-79
2022/11/24 07:22:56;;;;;;;8.90;5.53;;;;;;;;;;4989285;28;20187;-80
2022/11/24 07:25:22;;;;;;;8.93;5.73;;;;;;;;;;5008043;28;21099;-80
2022/11/24 07:27:47;;;;;;;10.20;6.13;;;;;;;;;;5013682;28;20183;-80
2022/11/24 07:30:12;;;;;;;7.50;4.57;;;;;;;;;;5005825;28;20211;-79
2022/11/24 07:32:37;;;;;;;8.53;5.40;;;;;;;;;;5006201;28;20195;-80
2022/11/24 07:35:03;;;;;;;8.80;5.23;;;;;;;;;;5007285;28;20930;-81
2022/11/24 07:37:28;;;;;;;8.00;4.90;;;;;;;;;;5007290;28;20184;-81
2022/11/24 07:39:53;;;;;;;9.50;5.23;;;;;;;;;;5002884;28;20288;-80
2022/11/24 07:42:18;;;;;;;8.80;5.23;;;;;;;;;;5012881;28;20183;-81
2022/11/24 07:44:44;;;;;;;6.80;4.47;;;;;;;;;;5000208;28;20179;-80
2022/11/24 07:47:09;;;;;;;7.93;4.40;;;;;;;;;;5009901;28;20501;-81
2022/11/24 07:49:34;;;;;;;10.23;5.00;;;;;;;;;;5010003;28;20203;-81
2022/11/24 07:52:00;;;;;;;9.00;4.70;;;;;;;;;;5006487;28;20176;-82
2022/11/24 07:54:25;;;;;;;9.87;4.57;;;;;;;;;;4990260;28;20179;-83
2022/11/24 07:56:50;;;;;;;8.87;4.00;;;;;;;;;;5004906;28;20186;-82
2022/11/24 07:59:15;;;;;;;8.10;4.40;;;;;;;;;;5000044;28;20207;-82
2022/11/24 08:01:41;;;;;;;8.37;4.07;;;;;;;;;;5003215;28;20187;-81
2022/11/24 08:04:06;;;;;;;8.40;4.07;;;;;;;;;;4989507;28;20172;-82
2022/11/24 08:06:31;;;;;;;8.23;3.50;;;;;;;;;;5007532;28;20192;-81
2022/11/24 08:08:57;;;;;;;10.07;4.23;;;;;;;;;;5010489;28;20207;-81
2022/11/24 08:11:22;;;;;;;11.13;4.53;;;;;;;;;;5008114;28;20176;-83
2022/11/24 08:13:47;;;;;;;11.33;3.43;;;;;;;;;;5008618;28;20653;-83
2022/11/24 08:16:14;;;;;;;9.00;3.13;;;;;;;;;;5009197;28;20172;-84
2022/11/24 08:18:40;;;;;;;7.67;3.00;;;;;;;;;;5009412;28;20195;-83
2022/11/24 08:21:05;;;;;;;8.80;3.00;;;;;;;;;;4990636;28;20198;-83
2022/11/24 08:23:31;;;;;;;12.07;3.77;;;;;;;;;;5011368;28;20159;-83
2022/11/24 08:26:01;;;;;;;10.07;2.83;;;;;;;;;;5008284;28;20234;-83
2022/11/24 08:28:27;;;;;;;4.50;2.80;;;;;;;;;;5009853;28;20226;-83
2022/11/24 08:30:52;;;;;;;14.23;5.70;;;;;;;;;;5005532;28;20207;-83
2022/11/24 08:33:17;;;;;;;10.20;2.63;;;;;;;;;;5009166;28;20630;-83
2022/11/24 08:35:42;;;;;;;10.50;2.97;;;;;;;;;;4999287;28;20198;-84
2022/11/24 08:38:07;;;;;;;8.13;2.60;;;;;;;;;;5008187;28;20212;-82
2022/11/24 08:40:33;;;;;;;10.63;3.50;;;;;;;;;;5008737;28;20219;-81
2022/11/24 08:42:59;;;;;;;9.27;2.97;;;;;;;;;;5006224;28;20178;-82
2022/11/24 08:45:24;;;;;;;11.60;3.00;;;;;;;;;;5006250;28;20631;-82
2022/11/24 08:47:56;;;;;;;8.53;2.60;;;;;;;;;;5006566;28;20620;-82
2022/11/24 08:50:21;;;;;;;4.00;1.80;;;;;;;;;;5006080;28;20444;-82
2022/11/24 08:52:46;;;;;;;9.47;2.20;;;;;;;;;;4988807;28;20666;-81
2022/11/24 08:55:12;;;;;;;6.60;2.17;;;;;;;;;;5004635;28;20658;-82
2022/11/24 08:57:37;;;;;;;7.37;2.43;;;;;;;;;;5011126;28;20191;-81
2022/11/24 09:00:03;;;;;;;12.93;3.97;;;;;;;;;;5010640;28;20261;-82
2022/11/24 09:02:28;;;;;;;10.20;2.60;;;;;;;;;;5011578;28;20176;-82
2022/11/24 09:04:53;;;;;;;9.97;2.57;;;;;;;;;;5010528;28;20198;-81
2022/11/24 09:07:18;;;;;;;8.10;2.67;;;;;;;;;;5014175;28;20172;-82
2022/11/24 09:09:44;;;;;;;6.57;2.40;;;;;;;;;;4997258;28;20263;-81
2022/11/24 09:12:09;;;;;;;4.50;2.00;;;;;;;;;;5005130;28;20242;-81
2022/11/24 09:14:34;;;;;;;13.93;3.23;;;;;;;;;;5007440;28;20267;-81
2022/11/24 09:16:59;;;;;;;7.93;2.17;;;;;;;;;;5013554;28;20590;-81
2022/11/24 09:19:24;;;;;;;7.93;2.40;;;;;;;;;;5009267;28;20219;-82
2022/11/24 09:21:50;;;;;;;11.60;2.43;;;;;;;;;;4994784;28;20183;-82
2022/11/24 09:24:15;;;;;;;5.93;2.40;;;;;;;;;;5011711;28;20167;-80
2022/11/24 09:26:40;;;;;;;10.47;2.30;;;;;;;;;;5021847;28;20168;-81
2022/11/24 09:29:06;;;;;;;8.23;1.85;;;;;;;;;;4993796;28;20222;-79
2022/11/24 09:31:33;;;;;;;3.80;1.48;;;;;;;;;;5002665;28;20172;-80
2022/11/24 09:33:59;;;;;;;5.50;1.85;;;;;;;;;;5008892;28;20206;-79
2022/11/24 09:36:24;;;;;;;5.00;2.20;;;;;;;;;;4990946;28;20171;-79
2022/11/24 09:38:49;;;;;;;9.88;3.00;;;;;;;;;;4987253;28;20199;-79
2022/11/24 09:41:33;;;;;;;6.75;1.88;;;;;;;;;;4998538;28;20196;-79
2022/11/24 09:44:13;;;;;;;6.85;2.78;;;;;;;;;;4997304;28;20198;-79
2022/11/24 09:46:39;;;;;;;6.43;1.90;;;;;;;;;;4997712;28;20183;-79
2022/11/24 09:49:08;;;;;;;7.00;1.60;;;;;;;;;;5002008;28;20629;-79
2022/11/24 09:51:35;;;;;;;9.02;2.22;;;;;;;;;;5001036;28;20176;-80
2022/11/24 09:54:21;;;;;;;7.32;2.00;;;;;;;;;;4991686;28;20182;-80
2022/11/24 09:56:47;;;;;;;6.50;2.10;;;;;;;;;;4997292;28;20621;-80
2022/11/24 09:59:18;;;;;;;8.10;2.22;;;;;;;;;;4980996;28;20203;-80
2022/11/24 10:01:45;;;;;;;12.98;3.42;;;;;;;;;;4992705;28;20188;-79
2022/11/24 10:04:13;;;;;;;12.45;2.70;;;;;;;;;;5000064;28;20198;-80
2022/11/24 10:06:48;;;;;;;8.43;2.35;;;;;;;;;;5003077;28;20190;-80
2022/11/24 10:09:20;;;;;;;8.25;2.30;;;;;;;;;;5001789;28;20207;-79
2022/11/24 10:12:03;;;;;;;10.25;2.13;;;;;;;;;;5004313;28;20195;-78
2022/11/24 10:14:38;;;;;;;7.70;1.92;;;;;;;;;;4997047;28;20716;-78
2022/11/24 10:17:06;;;;;;;7.00;3.22;;;;;;;;;;4995046;28;20631;-80
2022/11/24 10:19:47;;;;;;;9.52;2.55;;;;;;;;;;4993097;28;20206;-80
2022/11/24 10:22:33;;;;;;;8.75;2.70;;;;;;;;;;4980020;28;20234;-80
2022/11/24 10:25:13;;;;;;;7.10;1.90;;;;;;;;;;4994622;28;20194;-80
2022/11/24 10:27:46;;;;;;;9.07;2.53;;;;;;;;;;4996173;28;20182;-80
2022/11/24 10:30:16;;;;;;;7.85;2.67;;;;;;;;;;4990435;28;20221;-80
2022/11/24 10:32:54;;;;;;;13.20;3.40;;;;;;;;;;4987626;28;20555;-80
2022/11/24 10:35:21;;;;;;;8.98;2.97;;;;;;;;;;4993276;28;20183;-80
2022/11/24 10:38:09;;;;;;;11.40;3.25;;;;;;;;;;4995713;28;20226;-80
2022/11/24 10:40:39;;;;;;;14.10;4.20;;;;;;;;;;4990247;28;20189;-79
2022/11/24 10:43:09;;;;;;;9.80;2.70;;;;;;;;;;4989044;28;20187;-78
2022/11/24 10:45:36;;;;;;;25.40;4.20;;;;;;;;;;4974762;28;20175;-79
2022/11/24 10:48:02;;;;;;;11.27;3.55;;;;;;;;;;4991810;28;20194;-79
2022/11/24 10:50:31;;;;;;;12.20;3.17;;;;;;;;;;4995778;28;20192;-79
2022/11/24 10:53:15;;;;;;;6.65;2.50;;;;;;;;;;4994699;28;20252;-79
2022/11/24 10:55:52;;;;;;;5.88;2.20;;;;;;;;;;4993470;28;20215;-78
2022/11/24 10:58:20;;;;;;;12.90;3.42;;;;;;;;;;4996160;28;20179;-79
2022/11/24 11:00:46;;;;;;;12.63;2.97;;;;;;;;;;4977154;28;20183;-78
2022/11/24 11:03:16;;;;;;;10.75;2.95;;;;;;;;;;4994999;28;20206;-78
2022/11/24 11:05:42;;;;;;;6.00;2.85;;;;;;;;;;4998004;28;20186;-78
2022/11/24 11:08:14;;;;;;;14.23;3.50;;;;;;;;;;4979016;28;20175;-79
2022/11/24 11:10:40;;;;;;;19.80;5.13;;;;;;;;;;4990462;28;20211;-78
2022/11/24 11:13:20;;;;;;;7.80;2.35;;;;;;;;;;5000153;28;20197;-79
2022/11/24 11:15:45;;;;;;;14.95;3.92;;;;;;;;;;4998034;28;20175;-79
2022/11/24 11:18:14;;;;;;;15.55;2.50;;;;;;;;;;5003226;28;20331;-78
2022/11/24 11:20:47;;;;;;;13.07;3.80;;;;;;;;;;5000327;28;20183;-78
2022/11/24 11:23:14;;;;;;;8.98;2.78;;;;;;;;;;4999245;28;20180;-80
2022/11/24 11:25:40;;;;;;;11.07;2.72;;;;;;;;;;5000981;28;20175;-78
2022/11/24 11:28:17;;;;;;;12.15;2.65;;;;;;;;;;5001798;28;20207;-78
2022/11/24 11:30:54;;;;;;;8.77;3.47;;;;;;;;;;5002354;28;20802;-79
2022/11/24 11:33:22;;;;;;;10.75;2.72;;;;;;;;;;4990821;28;20178;-79
2022/11/24 11:35:47;;;;;;;14.27;3.28;;;;;;;;;;4985621;28;20175;-79
2022/11/24 11:38:13;;;;;;;9.48;2.85;;;;;;;;;;4996032;28;20189;-79
2022/11/24 11:40:41;;;;;;;12.18;3.20;;;;;;;;;;4998048;28;20184;-79
2022/11/24 11:43:18;;;;;;;11.95;2.97;;;;;;;;;;4997541;28;20179;-79
2022/11/24 11:45:44;;;;;;;10.05;3.17;;;;;;;;;;4995363;28;20182;-79
2022/11/24 11:48:14;;;;;;;9.40;2.85;;;;;;;;;;4995539;28;20270;-79
2022/11/24 11:50:42;;;;;;;9.73;2.60;;;;;;;;;;4993501;28;20717;-79
2022/11/24 11:53:19;;;;;;;11.27;3.30;;;;;;;;;;4992370;28;20199;-79
2022/11/24 11:55:44;;;;;;;10.15;2.90;;;;;;;;;;4998206;28;20184;-79
2022/11/24 11:58:32;;;;;;;13.50;2.75;;;;;;;;;;4980702;28;20359;-79
2022/11/24 12:00:57;;;;;;;10.95;2.92;;;;;;;;;;4994135;28;20246;-79
2022/11/24 12:03:22;;;;;;;11.82;2.72;;;;;;;;;;4994675;28;20219;-79
2022/11/24 12:05:54;;;;;;;11.20;2.40;;;;;;;;;;4998432;28;20179;-79
2022/11/24 12:08:19;;;;;;;12.63;2.92;;;;;;;;;;4997250;28;20427;-79
2022/11/24 12:10:47;;;;;;;11.10;2.88;;;;;;;;;;4989671;28;20295;-79
2022/11/24 12:13:30;;;;;;;9.55;3.00;;;;;;;;;;4994112;28;20266;-79
2022/11/24 12:15:57;;;;;;;12.10;4.25;;;;;;;;;;4993264;28;20234;-79
2022/11/24 12:18:31;;;;;;;8.65;2.85;;;;;;;;;;4993338;28;20333;-79
2022/11/24 12:21:14;;;;;;;9.60;3.08;;;;;;;;;;4993466;28;20299;-79
2022/11/24 12:23:49;;;;;;;10.38;2.65;;;;;;;;;;4994433;28;20179;-79
2022/11/24 12:26:26;;;;;;;12.48;2.75;;;;;;;;;;4992378;28;20189;-79
2022/11/24 12:28:51;;;;;;;14.95;4.57;;;;;;;;;;4994733;28;20207;-80
2022/11/24 12:31:35;;;;;;;11.30;3.20;;;;;;;;;;4998774;28;20188;-79
2022/11/24 12:34:16;;;;;;;13.00;2.45;;;;;;;;;;4999889;28;20425;-79
2022/11/24 12:36:44;;;;;;;13.18;2.92;;;;;;;;;;4995261;28;20653;-79
2022/11/24 12:39:28;;;;;;;13.90;3.42;;;;;;;;;;4991302;28;20204;-79
2022/11/24 12:42:10;;;;;;;16.63;3.55;;;;;;;;;;4977606;28;20634;-79
2022/11/24 12:44:54;;;;;;;8.52;2.70;;;;;;;;;;4991396;28;20175;-79
2022/11/24 12:47:38;;;;;;;10.48;2.80;;;;;;;;;;4992232;28;20211;-79
2022/11/24 12:50:11;;;;;;;10.75;2.90;;;;;;;;;;4995415;28;20236;-79
2022/11/24 12:52:39;;;;;;;8.73;2.55;;;;;;;;;;4996228;28;20389;-79
2022/11/24 12:55:11;;;;;;;9.18;3.10;;;;;;;;;;4976735;28;20175;-79
2022/11/24 12:57:40;;;;;;;19.58;3.85;;;;;;;;;;4993282;28;20180;-79
2022/11/24 13:00:08;;;;;;;10.07;2.72;;;;;;;;;;4993908;28;20334;-78
2022/11/24 13:02:34;;;;;;;8.00;3.28;;;;;;;;;;4992151;28;20178;-78
2022/11/24 13:05:11;;;;;;;10.03;3.07;;;;;;;;;;4995524;28;20175;-78
2022/11/24 13:07:44;;;;;;;11.75;2.53;;;;;;;;;;4993946;28;20547;-78
2022/11/24 13:10:22;;;;;;;10.27;3.17;;;;;;;;;;4995134;28;20413;-78
2022/11/24 13:12:59;;;;;;;8.07;2.10;;;;;;;;;;5000668;28;20175;-78
2022/11/24 13:15:25;;;;;;;9.40;2.58;;;;;;;;;;4991409;28;20564;-78
2022/11/24 13:17:51;;;;;;;13.85;4.05;;;;;;;;;;4995663;28;20172;-78
2022/11/24 13:20:19;;;;;;;10.98;3.10;;;;;;;;;;4990502;28;20200;-78
2022/11/24 13:22:49;;;;;;;11.52;2.30;;;;;;;;;;4989416;28;20175;-78
2022/11/24 13:25:29;;;;;;;9.70;2.38;;;;;;;;;;4993697;28;20199;-78
2022/11/24 13:27:59;;;;;;;13.27;3.03;;;;;;;;;;4991446;28;20190;-78
2022/11/24 13:30:33;;;;;;;12.88;4.38;;;;;;;;;;4992912;28;20620;-78
2022/11/24 13:32:59;;;;;;;10.45;3.03;;;;;;;;;;4995195;28;20175;-78
2022/11/24 13:35:24;;;;;;;9.07;2.42;;;;;;;;;;4975409;28;20673;-78
2022/11/24 13:37:50;;;;;;;10.70;2.42;;;;;;;;;;4995676;28;20172;-78
2022/11/24 13:40:16;;;;;;;13.45;2.88;;;;;;;;;;4993803;28;20298;-78
2022/11/24 13:42:56;;;;;;;12.07;2.40;;;;;;;;;;4994281;28;20238;-78
2022/11/24 13:45:40;;;;;;;11.80;2.60;;;;;;;;;;4992049;28;20192;-78
2022/11/24 13:48:17;;;;;;;11.65;2.60;;;;;;;;;;4999105;28;20569;-78
2022/11/24 13:50:48;;;;;;;11.95;2.60;;;;;;;;;;4990062;28;20269;-78
2022/11/24 13:53:13;;;;;;;11.15;3.33;;;;;;;;;;4993416;28;20273;-79
2022/11/24 13:55:39;;;;;;;8.48;2.65;;;;;;;;;;4991990;28;20669;-78
2022/11/24 13:58:07;;;;;;;10.18;2.83;;;;;;;;;;4992292;28;20551;-79
2022/11/24 14:00:34;;;;;;;9.65;2.70;;;;;;;;;;4994184;28;20175;-79
2022/11/24 14:03:02;;;;;;;10.02;3.00;;;;;;;;;;4992989;28;20179;-79
2022/11/24 14:05:37;;;;;;;10.52;2.10;;;;;;;;;;4989759;28;20268;-79
2022/11/24 14:08:04;;;;;;;9.07;3.15;;;;;;;;;;4990986;28;20679;-79
2022/11/24 14:10:31;;;;;;;14.32;4.05;;;;;;;;;;4991744;28;20247;-78
2022/11/24 14:13:26;;;;;;;7.35;3.40;;;;;;;;;;4998420;28;20727;-79
2022/11/24 14:16:03;;;;;;;6.85;2.22;;;;;;;;;;4974615;28;20234;-79
2022/11/24 14:18:30;;;;;;;11.15;3.58;;;;;;;;;;4996301;28;20387;-79
2022/11/24 14:20:55;;;;;;;18.85;3.88;;;;;;;;;;4989496;28;20180;-79
2022/11/24 14:23:21;;;;;;;11.18;2.28;;;;;;;;;;4985429;28;20229;-79
2022/11/24 14:25:48;;;;;;;21.85;4.30;;;;;;;;;;4992629;28;20726;-79
2022/11/24 14:28:20;;;;;;;7.38;2.25;;;;;;;;;;4976375;28;20206;-79
2022/11/24 14:30:45;;;;;;;7.78;2.35;;;;;;;;;;4990797;28;20203;-79
2022/11/24 14:33:11;;;;;;;8.25;2.40;;;;;;;;;;4989585;28;20207;-79
2022/11/24 14:35:41;;;;;;;10.25;2.40;;;;;;;;;;4984689;28;20184;-79
2022/11/24 14:38:07;;;;;;;12.95;3.00;;;;;;;;;;4976436;28;20186;-79